sensor_id;sensor_type;location;lat;lon;timestamp;pressure;altitude;pressure_sealevel;temperature;humidity
14612;BME280;7392;52.078;11.650;2022-07-29T00:02:13;101191.56;;;16.04;59.63
14612;BME280;7392;52.078;11.650;2022-07-29T00:04:41;101188.81;;;16.05;59.92
14612;BME280;7392;52.078;11.650;2022-07-29T00:07:09;101181.72;;;16.04;60.32
14612;BME280;7392;52.078;11.650;2022-07-29T00:09:38;101187.94;;;16.06;60.40
14612;BME280;7392;52.078;11.650;2022-07-29T00:12:20;101187.03;;;16.07;60.07
14612;BME280;7392;52.078;11.650;2022-07-29T00:14:52;101180.75;;;16.07;60.07
14612;BME280;7392;52.078;11.650;2022-07-29T00:17:21;101169.19;;;16.05;60.02
14612;BME280;7392;52.078;11.650;2022-07-29T00:19:49;101171.88;;;16.05;59.95
14612;BME280;7392;52.078;11.650;2022-07-29T00:22:17;101162.97;;;16.04;59.87
14612;BME280;7392;52.078;11.650;2022-07-29T00:24:47;101161.19;;;16.03;59.90
14612;BME280;7392;52.078;11.650;2022-07-29T00:27:15;101151.44;;;16.01;59.71
14612;BME280;7392;52.078;11.650;2022-07-29T00:29:44;101155.94;;;15.99;59.56
14612;BME280;7392;52.078;11.650;2022-07-29T00:32:12;101155.06;;;15.97;59.00
14612;BME280;7392;52.078;11.650;2022-07-29T00:34:40;101147.97;;;15.94;59.06
14612;BME280;7392;52.078;11.650;2022-07-29T00:37:25;101146.19;;;15.93;59.10
14612;BME280;7392;52.078;11.650;2022-07-29T00:39:53;101138.16;;;15.93;59.17
14612;BME280;7392;52.078;11.650;2022-07-29T00:42:21;101133.75;;;15.91;59.20
14612;BME280;7392;52.078;11.650;2022-07-29T00:44:51;101132.00;;;15.88;59.09
14612;BME280;7392;52.078;11.650;2022-07-29T00:47:19;101132.94;;;15.87;59.21
14612;BME280;7392;52.078;11.650;2022-07-29T00:49:47;101128.53;;;15.83;58.80
14612;BME280;7392;52.078;11.650;2022-07-29T00:52:15;101125.88;;;15.81;59.24
14612;BME280;7392;52.078;11.650;2022-07-29T00:54:43;101128.63;;;15.78;59.30
14612;BME280;7392;52.078;11.650;2022-07-29T00:57:11;101117.03;;;15.75;59.42
14612;BME280;7392;52.078;11.650;2022-07-29T00:59:40;101119.72;;;15.73;59.53
14612;BME280;7392;52.078;11.650;2022-07-29T01:02:09;101120.66;;;15.72;59.78
14612;BME280;7392;52.078;11.650;2022-07-29T01:04:37;101111.75;;;15.71;60.00
14612;BME280;7392;52.078;11.650;2022-07-29T01:07:05;101108.19;;;15.69;60.03
14612;BME280;7392;52.078;11.650;2022-07-29T01:09:35;101105.53;;;15.68;60.16
14612;BME280;7392;52.078;11.650;2022-07-29T01:12:13;101103.78;;;15.67;60.19
14612;BME280;7392;52.078;11.650;2022-07-29T01:14:42;101103.84;;;15.64;60.14
14612;BME280;7392;52.078;11.650;2022-07-29T01:17:18;101097.63;;;15.62;60.00
14612;BME280;7392;52.078;11.650;2022-07-29T01:19:52;101095.84;;;15.61;59.83
14612;BME280;7392;52.078;11.650;2022-07-29T01:22:31;101086.06;;;15.61;60.11
14612;BME280;7392;52.078;11.650;2022-07-29T01:25:23;101084.28;;;15.60;60.11
14612;BME280;7392;52.078;11.650;2022-07-29T01:28:17;101087.84;;;15.59;60.48
14612;BME280;7392;52.078;11.650;2022-07-29T01:30:54;101084.28;;;15.59;60.19
14612;BME280;7392;52.078;11.650;2022-07-29T01:33:25;101078.13;;;15.55;60.25
14612;BME280;7392;52.078;11.650;2022-07-29T01:36:13;101085.28;;;15.55;59.91
14612;BME280;7392;52.078;11.650;2022-07-29T01:38:45;101072.84;;;15.50;59.75
14612;BME280;7392;52.078;11.650;2022-07-29T01:41:16;101084.50;;;15.48;60.23
14612;BME280;7392;52.078;11.650;2022-07-29T01:43:49;101074.69;;;15.47;60.41
14612;BME280;7392;52.078;11.650;2022-07-29T01:46:25;101073.84;;;15.43;60.33
14612;BME280;7392;52.078;11.650;2022-07-29T01:48:59;101068.50;;;15.43;60.13
14612;BME280;7392;52.078;11.650;2022-07-29T01:51:31;101069.47;;;15.41;60.56
14612;BME280;7392;52.078;11.650;2022-07-29T01:54:03;101073.94;;;15.37;60.91
14612;BME280;7392;52.078;11.650;2022-07-29T01:56:33;101070.41;;;15.35;61.12
14612;BME280;7392;52.078;11.650;2022-07-29T01:59:04;101075.78;;;15.33;61.47
14612;BME280;7392;52.078;11.650;2022-07-29T02:01:37;101074.94;;;15.31;61.63
14612;BME280;7392;52.078;11.650;2022-07-29T02:04:10;101077.63;;;15.30;61.77
14612;BME280;7392;52.078;11.650;2022-07-29T02:06:57;101067.91;;;15.26;62.01
14612;BME280;7392;52.078;11.650;2022-07-29T02:09:26;101064.38;;;15.24;62.14
14612;BME280;7392;52.078;11.650;2022-07-29T02:11:57;101060.78;;;15.25;62.18
14612;BME280;7392;52.078;11.650;2022-07-29T02:14:31;101065.28;;;15.23;62.27
14612;BME280;7392;52.078;11.650;2022-07-29T02:17:02;101062.63;;;15.21;62.41
14612;BME280;7392;52.078;11.650;2022-07-29T02:19:32;101063.56;;;15.19;62.55
14612;BME280;7392;52.078;11.650;2022-07-29T02:22:01;101064.47;;;15.18;62.67
14612;BME280;7392;52.078;11.650;2022-07-29T02:24:30;101068.09;;;15.15;62.85
14612;BME280;7392;52.078;11.650;2022-07-29T02:26:59;101069.00;;;15.14;62.78
14612;BME280;7392;52.078;11.650;2022-07-29T02:29:30;101059.22;;;15.10;63.18
14612;BME280;7392;52.078;11.650;2022-07-29T02:31:59;101069.97;;;15.08;63.34
14612;BME280;7392;52.078;11.650;2022-07-29T02:34:30;101066.41;;;15.08;63.57
14612;BME280;7392;52.078;11.650;2022-07-29T02:36:59;101061.97;;;15.07;63.71
14612;BME280;7392;52.078;11.650;2022-07-29T02:39:28;101054.88;;;15.04;63.72
14612;BME280;7392;52.078;11.650;2022-07-29T02:42:03;101056.66;;;15.04;63.80
14612;BME280;7392;52.078;11.650;2022-07-29T02:44:31;101060.25;;;15.01;63.99
14612;BME280;7392;52.078;11.650;2022-07-29T02:47:07;101062.06;;;15.01;64.20
14612;BME280;7392;52.078;11.650;2022-07-29T02:49:44;101054.06;;;14.99;64.37
14612;BME280;7392;52.078;11.650;2022-07-29T02:52:20;101053.19;;;14.99;64.59
14612;BME280;7392;52.078;11.650;2022-07-29T02:54:53;101048.72;;;14.99;64.82
14612;BME280;7392;52.078;11.650;2022-07-29T02:57:30;101054.06;;;14.99;64.93
14612;BME280;7392;52.078;11.650;2022-07-29T03:00:03;101060.28;;;15.00;64.96
14612;BME280;7392;52.078;11.650;2022-07-29T03:02:35;101054.09;;;14.98;64.98
14612;BME280;7392;52.078;11.650;2022-07-29T03:05:07;101055.00;;;14.96;65.25
14612;BME280;7392;52.078;11.650;2022-07-29T03:07:36;101052.31;;;14.98;65.44
14612;BME280;7392;52.078;11.650;2022-07-29T03:10:07;101047.84;;;14.99;65.75
14612;BME280;7392;52.078;11.650;2022-07-29T03:12:40;101049.63;;;14.98;65.76
14612;BME280;7392;52.078;11.650;2022-07-29T03:15:09;101042.47;;;15.00;65.72
14612;BME280;7392;52.078;11.650;2022-07-29T03:17:37;101038.00;;;15.01;65.88
14612;BME280;7392;52.078;11.650;2022-07-29T03:20:09;101040.63;;;15.04;65.93
14612;BME280;7392;52.078;11.650;2022-07-29T03:22:39;101047.72;;;15.05;65.96
14612;BME280;7392;52.078;11.650;2022-07-29T03:25:10;101037.03;;;15.05;65.81
14612;BME280;7392;52.078;11.650;2022-07-29T03:27:39;101041.44;;;15.07;65.72
14612;BME280;7392;52.078;11.650;2022-07-29T03:30:08;101041.47;;;15.06;66.02
14612;BME280;7392;52.078;11.650;2022-07-29T03:32:37;101037.91;;;15.07;65.75
14612;BME280;7392;52.078;11.650;2022-07-29T03:35:08;101037.00;;;15.06;65.97
14612;BME280;7392;52.078;11.650;2022-07-29T03:37:36;101037.94;;;15.05;66.17
14612;BME280;7392;52.078;11.650;2022-07-29T03:40:06;101045.94;;;15.07;65.99
14612;BME280;7392;52.078;11.650;2022-07-29T03:42:36;101036.09;;;15.07;66.23
14612;BME280;7392;52.078;11.650;2022-07-29T03:45:07;101039.63;;;15.09;66.00
14612;BME280;7392;52.078;11.650;2022-07-29T03:47:39;101037.78;;;15.13;65.97
14612;BME280;7392;52.078;11.650;2022-07-29T03:50:18;101037.75;;;15.16;66.15
14612;BME280;7392;52.078;11.650;2022-07-29T03:52:48;101032.34;;;15.19;66.17
14612;BME280;7392;52.078;11.650;2022-07-29T03:55:17;101038.53;;;15.21;66.00
14612;BME280;7392;52.078;11.650;2022-07-29T03:57:45;101037.66;;;15.22;66.14
14612;BME280;7392;52.078;11.650;2022-07-29T04:00:14;101033.13;;;15.26;66.35
14612;BME280;7392;52.078;11.650;2022-07-29T04:02:43;101035.78;;;15.27;66.40
14612;BME280;7392;52.078;11.650;2022-07-29T04:05:16;101037.56;;;15.27;66.20
14612;BME280;7392;52.078;11.650;2022-07-29T04:07:45;101038.44;;;15.29;66.25
14612;BME280;7392;52.078;11.650;2022-07-29T04:10:14;101039.31;;;15.29;66.18
14612;BME280;7392;52.078;11.650;2022-07-29T04:12:56;101042.84;;;15.31;66.41
14612;BME280;7392;52.078;11.650;2022-07-29T04:15:24;101047.25;;;15.34;66.41
14612;BME280;7392;52.078;11.650;2022-07-29T04:17:57;101049.91;;;15.36;66.69
14612;BME280;7392;52.078;11.650;2022-07-29T04:20:26;101048.97;;;15.38;66.77
14612;BME280;7392;52.078;11.650;2022-07-29T04:22:54;101056.94;;;15.43;67.14
14612;BME280;7392;52.078;11.650;2022-07-29T04:25:22;101058.66;;;15.45;67.31
14612;BME280;7392;52.078;11.650;2022-07-29T04:27:50;101056.88;;;15.46;67.49
14612;BME280;7392;52.078;11.650;2022-07-29T04:30:31;101059.47;;;15.49;67.64
14612;BME280;7392;52.078;11.650;2022-07-29T04:33:00;101062.13;;;15.50;67.87
14612;BME280;7392;52.078;11.650;2022-07-29T04:35:30;101063.88;;;15.53;68.00
14612;BME280;7392;52.078;11.650;2022-07-29T04:38:05;101062.03;;;15.57;67.73
14612;BME280;7392;52.078;11.650;2022-07-29T04:40:41;101061.97;;;15.60;67.58
14612;BME280;7392;52.078;11.650;2022-07-29T04:43:09;101056.53;;;15.63;67.29
14612;BME280;7392;52.078;11.650;2022-07-29T04:45:39;101046.72;;;15.65;67.33
14612;BME280;7392;52.078;11.650;2022-07-29T04:48:08;101047.50;;;15.70;67.09
14612;BME280;7392;52.078;11.650;2022-07-29T04:50:39;101050.09;;;15.75;66.96
14612;BME280;7392;52.078;11.650;2022-07-29T04:53:07;101043.81;;;15.79;66.68
14612;BME280;7392;52.078;11.650;2022-07-29T04:55:35;101035.72;;;15.82;66.23
14612;BME280;7392;52.078;11.650;2022-07-29T04:58:04;101029.38;;;15.86;66.23
14612;BME280;7392;52.078;11.650;2022-07-29T05:00:32;101029.34;;;15.89;66.38
14612;BME280;7392;52.078;11.650;2022-07-29T05:03:00;101038.19;;;15.93;66.39
14612;BME280;7392;52.078;11.650;2022-07-29T05:05:28;101032.78;;;15.96;66.18
14612;BME280;7392;52.078;11.650;2022-07-29T05:07:58;101035.44;;;15.97;66.34
14612;BME280;7392;52.078;11.650;2022-07-29T05:10:26;101029.06;;;16.01;66.38
14612;BME280;7392;52.078;11.650;2022-07-29T05:12:55;101034.38;;;16.04;66.27
14612;BME280;7392;52.078;11.650;2022-07-29T05:15:23;101030.75;;;16.07;66.04
14612;BME280;7392;52.078;11.650;2022-07-29T05:17:51;101035.16;;;16.10;66.24
14612;BME280;7392;52.078;11.650;2022-07-29T05:20:19;101041.34;;;16.13;66.14
14612;BME280;7392;52.078;11.650;2022-07-29T05:22:52;101040.44;;;16.14;66.15
14612;BME280;7392;52.078;11.650;2022-07-29T05:25:21;101039.47;;;16.17;66.19
14612;BME280;7392;52.078;11.650;2022-07-29T05:28:09;101040.31;;;16.19;66.21
14612;BME280;7392;52.078;11.650;2022-07-29T05:30:37;101030.50;;;16.19;66.12
14612;BME280;7392;52.078;11.650;2022-07-29T05:33:05;101034.03;;;16.21;66.39
14612;BME280;7392;52.078;11.650;2022-07-29T05:35:33;101037.56;;;16.23;66.35
14612;BME280;7392;52.078;11.650;2022-07-29T05:38:03;101032.16;;;16.25;66.66
14612;BME280;7392;52.078;11.650;2022-07-29T05:40:34;101030.34;;;16.27;66.65
14612;BME280;7392;52.078;11.650;2022-07-29T05:43:02;101029.41;;;16.30;66.41
14612;BME280;7392;52.078;11.650;2022-07-29T05:45:30;101038.28;;;16.32;66.49
14612;BME280;7392;52.078;11.650;2022-07-29T05:48:01;101042.66;;;16.36;66.26
14612;BME280;7392;52.078;11.650;2022-07-29T05:50:29;101039.03;;;16.38;66.10
14612;BME280;7392;52.078;11.650;2022-07-29T05:52:57;101045.22;;;16.42;66.01
14612;BME280;7392;52.078;11.650;2022-07-29T05:55:46;101042.44;;;16.47;65.85
14612;BME280;7392;52.078;11.650;2022-07-29T05:58:14;101036.09;;;16.51;65.77
14612;BME280;7392;52.078;11.650;2022-07-29T06:00:42;101030.63;;;16.55;65.49
14612;BME280;7392;52.078;11.650;2022-07-29T06:03:10;101045.69;;;16.61;65.50
14612;BME280;7392;52.078;11.650;2022-07-29T06:05:37;101048.25;;;16.67;65.64
14612;BME280;7392;52.078;11.650;2022-07-29T06:08:05;101044.47;;;16.76;65.46
14612;BME280;7392;52.078;11.650;2022-07-29T06:10:34;101046.94;;;16.85;65.57
14612;BME280;7392;52.078;11.650;2022-07-29T06:13:04;101043.19;;;16.92;65.27
14612;BME280;7392;52.078;11.650;2022-07-29T06:15:32;101040.38;;;16.98;65.17
14612;BME280;7392;52.078;11.650;2022-07-29T06:18:00;101043.75;;;17.07;65.00
14612;BME280;7392;52.078;11.650;2022-07-29T06:20:28;101042.66;;;17.15;65.15
14612;BME280;7392;52.078;11.650;2022-07-29T06:22:57;101043.34;;;17.24;64.63
14612;BME280;7392;52.078;11.650;2022-07-29T06:25:25;101042.31;;;17.29;64.60
14612;BME280;7392;52.078;11.650;2022-07-29T06:27:55;101053.75;;;17.36;64.42
14612;BME280;7392;52.078;11.650;2022-07-29T06:30:25;101048.28;;;17.41;64.30
14612;BME280;7392;52.078;11.650;2022-07-29T06:32:53;101047.28;;;17.45;63.94
14612;BME280;7392;52.078;11.650;2022-07-29T06:35:21;101047.25;;;17.46;63.62
14612;BME280;7392;52.078;11.650;2022-07-29T06:38:07;101048.00;;;17.51;63.54
14612;BME280;7392;52.078;11.650;2022-07-29T06:40:55;101036.25;;;17.55;63.36
14612;BME280;7392;52.078;11.650;2022-07-29T06:43:35;101038.78;;;17.62;63.42
14612;BME280;7392;52.078;11.650;2022-07-29T06:46:19;101027.81;;;17.69;63.49
14612;BME280;7392;52.078;11.650;2022-07-29T06:48:49;101030.31;;;17.77;63.43
14612;BME280;7392;52.078;11.650;2022-07-29T06:51:19;101025.69;;;17.82;63.29
14612;BME280;7392;52.078;11.650;2022-07-29T06:53:50;101024.63;;;17.89;63.07
14612;BME280;7392;52.078;11.650;2022-07-29T06:56:29;101037.81;;;17.99;63.28
14612;BME280;7392;52.078;11.650;2022-07-29T06:58:57;101039.38;;;18.06;62.96
14612;BME280;7392;52.078;11.650;2022-07-29T07:01:28;101039.19;;;18.12;62.22
14612;BME280;7392;52.078;11.650;2022-07-29T07:03:56;101041.59;;;18.23;61.92
14612;BME280;7392;52.078;11.650;2022-07-29T07:06:24;101030.47;;;18.35;61.73
14612;BME280;7392;52.078;11.650;2022-07-29T07:08:51;101031.03;;;18.46;61.65
14612;BME280;7392;52.078;11.650;2022-07-29T07:11:20;101038.72;;;18.59;61.75
14612;BME280;7392;52.078;11.650;2022-07-29T07:13:47;101044.53;;;18.73;61.16
14612;BME280;7392;52.078;11.650;2022-07-29T07:16:16;101037.91;;;18.85;60.95
14612;BME280;7392;52.078;11.650;2022-07-29T07:18:45;101047.38;;;18.98;60.33
14612;BME280;7392;52.078;11.650;2022-07-29T07:21:13;101046.28;;;19.04;59.85
14612;BME280;7392;52.078;11.650;2022-07-29T07:23:45;101044.34;;;19.08;59.92
14612;BME280;7392;52.078;11.650;2022-07-29T07:26:13;101041.63;;;19.09;59.69
14612;BME280;7392;52.078;11.650;2022-07-29T07:28:41;101041.56;;;19.11;59.82
14612;BME280;7392;52.078;11.650;2022-07-29T07:31:10;101037.00;;;19.13;59.76
14612;BME280;7392;52.078;11.650;2022-07-29T07:33:38;101027.09;;;19.15;59.12
14612;BME280;7392;52.078;11.650;2022-07-29T07:36:08;101030.63;;;19.17;59.03
14612;BME280;7392;52.078;11.650;2022-07-29T07:38:35;101024.19;;;19.21;59.11
14612;BME280;7392;52.078;11.650;2022-07-29T07:41:03;101012.44;;;19.23;58.90
14612;BME280;7392;52.078;11.650;2022-07-29T07:43:31;101014.97;;;19.28;58.75
14612;BME280;7392;52.078;11.650;2022-07-29T07:45:59;101014.75;;;19.34;58.45
14612;BME280;7392;52.078;11.650;2022-07-29T07:48:27;101032.41;;;19.43;58.13
14612;BME280;7392;52.078;11.650;2022-07-29T07:50:55;101038.13;;;19.59;58.16
14612;BME280;7392;52.078;11.650;2022-07-29T07:53:24;101038.59;;;19.72;57.94
14612;BME280;7392;52.078;11.650;2022-07-29T07:55:52;101048.84;;;19.87;58.15
14612;BME280;7392;52.078;11.650;2022-07-29T07:58:38;101047.38;;;20.04;57.27
14612;BME280;7392;52.078;11.650;2022-07-29T08:01:06;101040.44;;;20.20;56.92
14612;BME280;7392;52.078;11.650;2022-07-29T08:03:34;101038.13;;;20.34;55.79
14612;BME280;7392;52.078;11.650;2022-07-29T08:06:03;101042.97;;;20.48;55.45
14612;BME280;7392;52.078;11.650;2022-07-29T08:08:32;101037.94;;;20.63;55.53
14612;BME280;7392;52.078;11.650;2022-07-29T08:11:00;101030.25;;;20.76;55.71
14612;BME280;7392;52.078;11.650;2022-07-29T08:13:34;101027.97;;;20.87;55.07
14612;BME280;7392;52.078;11.650;2022-07-29T08:16:02;101036.53;;;20.98;54.91
14612;BME280;7392;52.078;11.650;2022-07-29T08:18:38;101025.34;;;21.07;54.40
14612;BME280;7392;52.078;11.650;2022-07-29T08:21:07;101027.75;;;21.15;54.18
14612;BME280;7392;52.078;11.650;2022-07-29T08:23:36;101024.91;;;21.18;54.04
14612;BME280;7392;52.078;11.650;2022-07-29T08:26:14;101027.03;;;21.32;53.85
14612;BME280;7392;52.078;11.650;2022-07-29T08:28:43;101026.41;;;21.47;53.66
14612;BME280;7392;52.078;11.650;2022-07-29T08:31:13;101025.66;;;21.64;53.58
14612;BME280;7392;52.078;11.650;2022-07-29T08:33:41;101027.56;;;21.83;53.36
14612;BME280;7392;52.078;11.650;2022-07-29T08:36:09;101032.94;;;22.03;52.74
14612;BME280;7392;52.078;11.650;2022-07-29T08:38:38;101031.06;;;22.25;52.14
14612;BME280;7392;52.078;11.650;2022-07-29T08:41:07;101032.81;;;22.46;51.75
14612;BME280;7392;52.078;11.650;2022-07-29T08:43:34;101036.38;;;22.66;51.31
14612;BME280;7392;52.078;11.650;2022-07-29T08:46:04;101027.28;;;22.86;51.16
14612;BME280;7392;52.078;11.650;2022-07-29T08:48:32;101037.50;;;22.98;50.75
14612;BME280;7392;52.078;11.650;2022-07-29T08:51:02;101035.25;;;23.08;50.57
14612;BME280;7392;52.078;11.650;2022-07-29T08:53:31;101035.59;;;23.19;49.67
14612;BME280;7392;52.078;11.650;2022-07-29T08:56:01;101032.16;;;23.33;49.09
14612;BME280;7392;52.078;11.650;2022-07-29T08:58:32;101035.94;;;23.48;49.08
14612;BME280;7392;52.078;11.650;2022-07-29T09:01:04;101035.28;;;23.60;49.22
14612;BME280;7392;52.078;11.650;2022-07-29T09:03:39;101028.84;;;23.63;48.39
14612;BME280;7392;52.078;11.650;2022-07-29T09:06:07;101033.28;;;23.64;48.67
14612;BME280;7392;52.078;11.650;2022-07-29T09:08:35;101026.13;;;23.63;48.45
14612;BME280;7392;52.078;11.650;2022-07-29T09:11:05;101017.84;;;23.66;47.91
14612;BME280;7392;52.078;11.650;2022-07-29T09:13:34;101020.41;;;23.86;48.14
14612;BME280;7392;52.078;11.650;2022-07-29T09:16:03;101015.47;;;24.11;47.92
14612;BME280;7392;52.078;11.650;2022-07-29T09:18:36;101008.59;;;24.37;47.71
14612;BME280;7392;52.078;11.650;2022-07-29T09:21:05;101016.94;;;24.50;46.90
14612;BME280;7392;52.078;11.650;2022-07-29T09:24:07;101011.88;;;24.59;46.23
14612;BME280;7392;52.078;11.650;2022-07-29T09:26:39;101004.88;;;24.71;46.16
14612;BME280;7392;52.078;11.650;2022-07-29T09:29:10;101011.28;;;24.86;45.65
14612;BME280;7392;52.078;11.650;2022-07-29T09:31:40;101002.16;;;25.03;45.37
14612;BME280;7392;52.078;11.650;2022-07-29T09:34:09;100998.44;;;25.20;45.46
14612;BME280;7392;52.078;11.650;2022-07-29T09:36:40;100997.44;;;25.37;44.71
14612;BME280;7392;52.078;11.650;2022-07-29T09:39:09;100994.56;;;25.54;44.55
14612;BME280;7392;52.078;11.650;2022-07-29T09:41:46;100995.66;;;25.66;43.59
14612;BME280;7392;52.078;11.650;2022-07-29T09:44:15;100994.91;;;25.79;43.51
14612;BME280;7392;52.078;11.650;2022-07-29T09:46:57;100988.06;;;26.02;44.10
14612;BME280;7392;52.078;11.650;2022-07-29T09:49:25;100988.63;;;26.21;44.11
14612;BME280;7392;52.078;11.650;2022-07-29T09:52:02;100984.53;;;26.43;44.03
14612;BME280;7392;52.078;11.650;2022-07-29T09:54:31;100986.91;;;26.62;43.08
14612;BME280;7392;52.078;11.650;2022-07-29T09:57:05;100983.19;;;26.77;42.32
14612;BME280;7392;52.078;11.650;2022-07-29T09:59:33;100985.97;;;26.90;41.48
14612;BME280;7392;52.078;11.650;2022-07-29T10:02:15;100976.00;;;27.03;40.81
14612;BME280;7392;52.078;11.650;2022-07-29T10:04:49;100974.81;;;27.08;38.76
14612;BME280;7392;52.078;11.650;2022-07-29T10:07:17;100965.91;;;27.18;39.58
14612;BME280;7392;52.078;11.650;2022-07-29T10:09:51;100972.19;;;27.33;39.15
14612;BME280;7392;52.078;11.650;2022-07-29T10:12:22;100967.59;;;27.47;39.29
14612;BME280;7392;52.078;11.650;2022-07-29T10:14:50;100968.94;;;27.67;39.57
14612;BME280;7392;52.078;11.650;2022-07-29T10:17:18;100954.22;;;27.82;38.49
14612;BME280;7392;52.078;11.650;2022-07-29T10:19:46;100958.59;;;27.97;37.92
14612;BME280;7392;52.078;11.650;2022-07-29T10:22:16;100957.59;;;28.11;37.24
14612;BME280;7392;52.078;11.650;2022-07-29T10:25:04;100955.81;;;28.23;36.63
14612;BME280;7392;52.078;11.650;2022-07-29T10:27:34;100950.03;;;28.28;36.20
14612;BME280;7392;52.078;11.650;2022-07-29T10:30:02;100952.50;;;28.44;36.34
14612;BME280;7392;52.078;11.650;2022-07-29T10:32:40;100948.56;;;28.48;34.61
14612;BME280;7392;52.078;11.650;2022-07-29T10:35:29;100928.22;;;28.65;35.28
14612;BME280;7392;52.078;11.650;2022-07-29T10:38:15;100930.28;;;28.85;35.16
14612;BME280;7392;52.078;11.650;2022-07-29T10:40:57;100919.69;;;29.05;34.80
14612;BME280;7392;52.078;11.650;2022-07-29T10:43:48;100926.75;;;29.32;34.40
14612;BME280;7392;52.078;11.650;2022-07-29T10:46:20;100926.38;;;29.36;34.13
14612;BME280;7392;52.078;11.650;2022-07-29T10:49:08;100930.50;;;29.42;33.05
14612;BME280;7392;52.078;11.650;2022-07-29T10:51:54;100916.84;;;29.53;33.00
14612;BME280;7392;52.078;11.650;2022-07-29T10:54:43;100909.91;;;29.72;32.60
14612;BME280;7392;52.078;11.650;2022-07-29T10:57:18;100911.19;;;29.90;32.41
14612;BME280;7392;52.078;11.650;2022-07-29T11:00:28;100903.97;;;30.00;32.23
14612;BME280;7392;52.078;11.650;2022-07-29T11:02:57;100891.38;;;30.09;31.22
14612;BME280;7392;52.078;11.650;2022-07-29T11:05:54;100908.91;;;30.18;31.19
14612;BME280;7392;52.078;11.650;2022-07-29T11:08:25;100904.53;;;30.27;30.96
14612;BME280;7392;52.078;11.650;2022-07-29T11:14:03;100901.47;;;30.75;30.67
14612;BME280;7392;52.078;11.650;2022-07-29T11:16:59;100899.50;;;30.98;30.17
14612;BME280;7392;52.078;11.650;2022-07-29T11:19:32;100891.16;;;31.21;29.54
14612;BME280;7392;52.078;11.650;2022-07-29T11:22:02;100895.59;;;31.33;29.10
14612;BME280;7392;52.078;11.650;2022-07-29T11:24:31;100899.13;;;31.45;28.44
14612;BME280;7392;52.078;11.650;2022-07-29T11:27:11;100892.16;;;31.41;27.41
14612;BME280;7392;52.078;11.650;2022-07-29T11:29:50;100895.03;;;31.39;28.33
14612;BME280;7392;52.078;11.650;2022-07-29T11:32:21;100895.91;;;31.40;28.22
14612;BME280;7392;52.078;11.650;2022-07-29T11:35:10;100892.88;;;31.43;28.22
14612;BME280;7392;52.078;11.650;2022-07-29T11:37:44;100880.91;;;31.65;28.19
14612;BME280;7392;52.078;11.650;2022-07-29T11:40:23;100879.97;;;31.76;27.56
14612;BME280;7392;52.078;11.650;2022-07-29T11:42:52;100885.06;;;31.90;27.29
14612;BME280;7392;52.078;11.650;2022-07-29T11:45:25;100881.91;;;32.04;27.74
14612;BME280;7392;52.078;11.650;2022-07-29T11:48:18;100870.88;;;32.25;27.24
14612;BME280;7392;52.078;11.650;2022-07-29T11:50:58;100873.66;;;32.45;26.77
14612;BME280;7392;52.078;11.650;2022-07-29T11:53:29;100877.00;;;32.39;25.94
14612;BME280;7392;52.078;11.650;2022-07-29T11:55:59;100874.19;;;32.19;25.53
14612;BME280;7392;52.078;11.650;2022-07-29T11:58:29;100863.03;;;32.11;26.02
14612;BME280;7392;52.078;11.650;2022-07-29T12:00:58;100870.31;;;32.41;27.60
14612;BME280;7392;52.078;11.650;2022-07-29T12:03:31;100862.41;;;32.77;27.45
14612;BME280;7392;52.078;11.650;2022-07-29T12:06:04;100867.94;;;32.97;26.06
14612;BME280;7392;52.078;11.650;2022-07-29T12:08:40;100868.63;;;32.99;25.95
14612;BME280;7392;52.078;11.650;2022-07-29T12:11:17;100858.50;;;33.09;26.18
14612;BME280;7392;52.078;11.650;2022-07-29T12:13:48;100865.47;;;33.04;26.02
14612;BME280;7392;52.078;11.650;2022-07-29T12:16:16;100859.78;;;33.05;26.03
14612;BME280;7392;52.078;11.650;2022-07-29T12:19:00;100862.56;;;33.15;26.35
14612;BME280;7392;52.078;11.650;2022-07-29T12:21:43;100860.78;;;33.24;26.50
14612;BME280;7392;52.078;11.650;2022-07-29T12:24:25;100867.72;;;33.38;25.98
14612;BME280;7392;52.078;11.650;2022-07-29T12:26:54;100858.31;;;33.40;25.40
14612;BME280;7392;52.078;11.650;2022-07-29T12:29:22;100851.69;;;33.23;24.88
14612;BME280;7392;52.078;11.650;2022-07-29T12:32:00;100853.16;;;33.17;25.28
14612;BME280;7392;52.078;11.650;2022-07-29T12:34:29;100852.84;;;33.21;25.73
14612;BME280;7392;52.078;11.650;2022-07-29T12:36:57;100854.88;;;33.18;25.65
14612;BME280;7392;52.078;11.650;2022-07-29T12:39:26;100847.22;;;33.03;25.30
14612;BME280;7392;52.078;11.650;2022-07-29T12:41:54;100851.56;;;32.95;25.66
14612;BME280;7392;52.078;11.650;2022-07-29T12:44:43;100849.09;;;32.83;25.17
14612;BME280;7392;52.078;11.650;2022-07-29T12:47:11;100847.53;;;32.70;24.77
14612;BME280;7392;52.078;11.650;2022-07-29T12:49:40;100842.47;;;32.66;25.26
14612;BME280;7392;52.078;11.650;2022-07-29T12:52:28;100845.66;;;32.61;24.67
14612;BME280;7392;52.078;11.650;2022-07-29T12:54:56;100846.38;;;32.63;24.53
14612;BME280;7392;52.078;11.650;2022-07-29T12:57:25;100838.38;;;32.99;24.34
14612;BME280;7392;52.078;11.650;2022-07-29T13:00:14;100834.41;;;33.41;24.31
14612;BME280;7392;52.078;11.650;2022-07-29T13:02:42;100828.91;;;33.41;24.05
14612;BME280;7392;52.078;11.650;2022-07-29T13:05:12;100833.84;;;33.37;24.12
14612;BME280;7392;52.078;11.650;2022-07-29T13:07:40;100825.28;;;33.40;24.12
14612;BME280;7392;52.078;11.650;2022-07-29T13:10:23;100826.28;;;33.86;24.20
14612;BME280;7392;52.078;11.650;2022-07-29T13:13:05;100827.72;;;34.36;24.76
14612;BME280;7392;52.078;11.650;2022-07-29T13:15:35;100823.44;;;34.78;24.63
14612;BME280;7392;52.078;11.650;2022-07-29T13:18:04;100819.88;;;35.03;24.01
14612;BME280;7392;52.078;11.650;2022-07-29T13:20:34;100826.34;;;35.38;23.90